首页
METAR-TAF:

METAR-TAF

机场 :

阿道弗·苏亚雷斯马德里-巴拉哈斯机场

马德里, 西班牙

纬度: 40-27N, 经度: 003-33W, 海拔: 609米

当前天气观测

该预报发布于27分钟前的16:00 UTC
静风
温度 6°C
湿度 93%
气压 1025 hPa
能見度: 6000
少量云层高于800英尺
散云层高于1200英尺
多云层高于7500英尺
毛毛雨

METAR: LEMD 081600Z 00000KT 6000 DZ FEW008 SCT012 BKN075 06/05 Q1025 R88/19//95 NOSIG

时间: 17:27 (16:27 UTC)

预报

该预报发布于1小时和0分钟前的15:27 UTC
预报有效从08日的 15点(UTC)到 09日的 18点(UTC)
风速5节,风向多变
能見度: 6000
少量云层高于400英尺
散云层高于1300英尺
几率 40% :
短暂存在
从 08日的 15点(UTC)到 09日的 10点(UTC)
能見度: 3000
多云层高于800英尺
雨, 毛毛雨, 轻雾
几率 40% :
短暂存在
从 09日的 01点(UTC)到 09日的 10点(UTC)
能見度: 0100
层高于100英尺

TAF: LEMD 081527Z 0815/0918 VRB05KT 6000 FEW004 SCT013 TX10/0915Z TN04/0906Z PROB40 TEMPO 0815/0910 3000 RADZ BR BKN008 PROB40 TEMPO 0901/0910 0100 FG VV001

超过4000个机场的气象观测和天气预报(METAR&TAF报告)。

可查询的气象台以黄色和红色小点在地图上表示。

将鼠标移到小点上方,可查看气象台名称。

然后点击查看天气观测和预报。

如需切换地图:点击带黑十字的绿色按钮放大地图;点击带横线的绿色按钮缩小地图;或者点击绿色箭头查看邻近地区的地图。


METAR-TAF: